Time;durP1;ratioP1;P1;durP2;ratioP2;P2;SDS_P1;SDS_P2;PMS_P1;PMS_P2;Temp;Humidity;BMP_temperature;BMP_pressure;BME280_temperature;BME280_humidity;BME280_pressure;Samples;Min_cycle;Max_cycle;Signal;HPM_P1;HPM_P2
2022/03/21 00:00:01;;;;;;;50.92;27.05;;;7.90;46.50;;;;;;5030343;28;20101;-71
2022/03/21 00:02:27;;;;;;;71.45;41.70;;;7.90;46.50;;;;;;5029263;28;20013;-71
2022/03/21 00:04:55;;;;;;;18.15;9.10;;;7.90;46.80;;;;;;5012290;28;20040;-71
2022/03/21 00:07:20;;;;;;;15.45;9.85;;;7.90;47.20;;;;;;5025265;28;20036;-70
2022/03/21 00:09:46;;;;;;;14.75;8.45;;;7.90;46.80;;;;;;5030512;28;20029;-70
2022/03/21 00:12:13;;;;;;;14.73;9.10;;;7.90;46.80;;;;;;5026910;28;20033;-70
2022/03/21 00:14:41;;;;;;;12.82;8.70;;;7.80;46.70;;;;;;5031177;28;20026;-71
2022/03/21 00:17:07;;;;;;;17.13;8.75;;;7.80;46.70;;;;;;5026598;28;20034;-71
2022/03/21 00:19:33;;;;;;;17.08;9.60;;;7.80;46.80;;;;;;5011694;28;20047;-75
2022/03/21 00:22:01;;;;;;;12.88;8.45;;;7.80;47.10;;;;;;5027758;28;20034;-71
2022/03/21 00:24:27;;;;;;;16.33;8.98;;;7.70;47.10;;;;;;5028967;28;20029;-70
2022/03/21 00:26:53;;;;;;;18.75;10.40;;;7.70;47.30;;;;;;5028540;28;20033;-71
2022/03/21 00:29:18;;;;;;;15.75;9.10;;;7.70;47.40;;;;;;5028479;28;20091;-70
2022/03/21 00:31:44;;;;;;;15.77;9.25;;;7.70;47.60;;;;;;5007533;28;20180;-71
2022/03/21 00:34:10;;;;;;;17.17;9.02;;;7.60;47.60;;;;;;5011770;28;20040;-70
2022/03/21 00:36:35;;;;;;;18.02;9.95;;;7.60;47.80;;;;;;5030131;28;20036;-71
2022/03/21 00:39:01;;;;;;;15.95;9.13;;;7.60;48.10;;;;;;5011873;28;20492;-71
2022/03/21 00:41:28;;;;;;;15.57;9.60;;;7.50;48.00;;;;;;5028629;28;20477;-71
2022/03/21 00:43:54;;;;;;;16.33;9.27;;;7.50;48.20;;;;;;5029465;28;20473;-70
2022/03/21 00:46:20;;;;;;;16.63;9.82;;;7.50;48.50;;;;;;5028968;28;20033;-71
2022/03/21 00:48:45;;;;;;;15.43;9.10;;;7.50;48.30;;;;;;5027003;28;20064;-70
2022/03/21 00:51:11;;;;;;;16.60;9.80;;;7.50;48.40;;;;;;5028918;28;20029;-70
2022/03/21 00:53:37;;;;;;;18.60;9.15;;;7.40;48.50;;;;;;5019013;28;20076;-70
2022/03/21 00:56:03;;;;;;;14.75;9.50;;;7.40;48.60;;;;;;5008457;28;20489;-72
2022/03/21 00:58:29;;;;;;;15.90;9.52;;;7.40;48.80;;;;;;5029184;28;20029;-70
2022/03/21 01:00:55;;;;;;;17.50;9.57;;;7.30;48.90;;;;;;5027658;28;20052;-70
2022/03/21 01:03:21;;;;;;;15.00;9.18;;;7.30;48.90;;;;;;4992259;28;20471;-71
2022/03/21 01:05:47;;;;;;;13.48;8.48;;;7.30;49.00;;;;;;5027110;28;20034;-71
2022/03/21 01:08:12;;;;;;;15.93;9.75;;;7.30;49.10;;;;;;5026948;28;20378;-70
2022/03/21 01:10:38;;;;;;;14.13;9.18;;;7.20;49.00;;;;;;5029567;28;20025;-71
2022/03/21 01:13:04;;;;;;;17.75;9.75;;;7.20;49.10;;;;;;5025592;28;20044;-70
2022/03/21 01:15:30;;;;;;;15.73;9.30;;;7.20;49.30;;;;;;5026467;28;20040;-70
2022/03/21 01:17:57;;;;;;;16.92;10.35;;;7.20;49.30;;;;;;5028673;28;20559;-71
2022/03/21 01:20:23;;;;;;;15.70;9.15;;;7.20;49.30;;;;;;5011187;28;20033;-71
2022/03/21 01:22:50;;;;;;;19.00;9.48;;;7.20;49.30;;;;;;5009601;28;20026;-70
2022/03/21 01:25:17;;;;;;;17.02;9.48;;;7.10;49.40;;;;;;5019331;28;20518;-70
2022/03/21 01:27:43;;;;;;;16.40;9.73;;;7.10;49.60;;;;;;5017116;28;20449;-71
2022/03/21 01:30:11;;;;;;;15.82;9.38;;;7.10;49.80;;;;;;5009885;28;20044;-70
2022/03/21 01:32:38;;;;;;;17.05;9.65;;;7.10;49.90;;;;;;5008962;28;20512;-70
2022/03/21 01:35:06;;;;;;;17.30;9.45;;;7.10;49.90;;;;;;5027758;28;20026;-73
2022/03/21 01:37:32;;;;;;;18.33;8.50;;;7.10;50.00;;;;;;4992192;28;20173;-70
2022/03/21 01:39:57;;;;;;;16.23;9.23;;;7.00;50.10;;;;;;5028847;28;20096;-70
2022/03/21 01:42:23;;;;;;;17.25;9.48;;;7.00;49.90;;;;;;5026440;28;20036;-71
2022/03/21 01:44:53;;;;;;;15.05;8.70;;;7.00;49.80;;;;;;5006815;28;20018;-70
2022/03/21 01:47:19;;;;;;;17.98;9.50;;;7.00;50.20;;;;;;5025558;28;20504;-71
2022/03/21 01:49:48;;;;;;;15.52;8.77;;;7.00;50.10;;;;;;5025570;28;20112;-73
2022/03/21 01:52:15;;;;;;;16.25;9.23;;;6.90;50.00;;;;;;5009940;28;20108;-70
2022/03/21 01:57:26;;;;;;;13.10;8.07;;;6.90;50.10;;;;;;5027557;28;20108;-70
2022/03/21 01:59:52;;;;;;;15.82;9.60;;;6.90;50.20;;;;;;5027884;28;20615;-74
2022/03/21 02:02:18;;;;;;;15.32;9.50;;;6.90;50.10;;;;;;5009219;28;20025;-70
2022/03/21 02:04:43;;;;;;;13.95;8.82;;;6.80;49.80;;;;;;5009832;28;20117;-71
2022/03/21 02:07:10;;;;;;;18.58;9.18;;;6.80;50.00;;;;;;5009207;28;20736;-70
2022/03/21 02:09:36;;;;;;;15.38;8.70;;;6.80;50.00;;;;;;5009487;28;20051;-71
2022/03/21 02:12:03;;;;;;;15.57;9.00;;;6.80;50.30;;;;;;5026634;28;20516;-70
2022/03/21 02:14:29;;;;;;;14.63;9.05;;;6.80;50.30;;;;;;5008022;28;20033;-73
2022/03/21 02:16:55;;;;;;;17.33;9.90;;;6.80;50.50;;;;;;5008307;28;20029;-70
2022/03/21 02:19:27;;;;;;;14.75;8.55;;;6.80;50.50;;;;;;5026627;28;20033;-70
2022/03/21 02:22:14;;;;;;;15.20;9.40;;;6.80;50.50;;;;;;5009032;28;20037;-70
2022/03/21 02:25:03;;;;;;;14.88;10.18;;;6.80;50.60;;;;;;4985076;28;20044;-70
2022/03/21 02:27:31;;;;;;;15.15;9.15;;;6.80;50.70;;;;;;5007396;28;20037;-70
2022/03/21 02:29:58;;;;;;;14.55;9.45;;;6.70;50.70;;;;;;5006525;28;20040;-70
2022/03/21 02:32:25;;;;;;;15.07;9.30;;;6.70;50.60;;;;;;5008777;28;20140;-70
2022/03/21 02:34:51;;;;;;;15.60;9.70;;;6.70;50.70;;;;;;5008228;28;20049;-70
2022/03/21 02:37:18;;;;;;;17.08;9.23;;;6.70;50.80;;;;;;5010209;28;20120;-70
2022/03/21 02:39:45;;;;;;;16.00;9.82;;;6.70;50.80;;;;;;5028990;28;20024;-70
2022/03/21 02:42:11;;;;;;;15.90;9.50;;;6.70;50.90;;;;;;5013210;28;20091;-70
2022/03/21 02:44:38;;;;;;;16.77;9.80;;;6.60;51.00;;;;;;5011058;28;20098;-71
2022/03/21 02:47:05;;;;;;;14.77;8.82;;;6.60;51.00;;;;;;5013219;28;20033;-71
2022/03/21 02:49:31;;;;;;;16.65;9.38;;;6.60;51.10;;;;;;5031289;28;20409;-71
2022/03/21 02:51:59;;;;;;;22.08;10.90;;;6.60;50.90;;;;;;5013014;28;20129;-74
2022/03/21 02:54:28;;;;;;;18.17;9.35;;;6.60;51.00;;;;;;5013765;28;20385;-70
2022/03/21 02:56:55;;;;;;;17.15;9.93;;;6.50;51.10;;;;;;5014195;28;20396;-70
2022/03/21 02:59:21;;;;;;;12.48;8.60;;;6.60;51.40;;;;;;5029423;28;20106;-70
2022/03/21 03:01:47;;;;;;;18.33;9.63;;;6.50;51.10;;;;;;5019765;28;20461;-70
2022/03/21 03:04:13;;;;;;;15.80;9.48;;;6.50;51.30;;;;;;5030428;28;20068;-71
2022/03/21 03:06:41;;;;;;;17.05;10.30;;;6.50;51.30;;;;;;5029929;28;20051;-74
2022/03/21 03:09:07;;;;;;;20.65;10.52;;;6.50;51.20;;;;;;5010166;28;20029;-70
2022/03/21 03:11:37;;;;;;;16.30;9.20;;;6.50;51.20;;;;;;5010320;28;20453;-70
2022/03/21 03:14:07;;;;;;;18.05;9.23;;;6.50;51.20;;;;;;5030381;28;20025;-71
2022/03/21 03:16:34;;;;;;;14.85;9.32;;;6.50;50.90;;;;;;5031194;28;20022;-71
2022/03/21 03:18:59;;;;;;;14.75;9.07;;;6.50;51.10;;;;;;5013100;28;20022;-70
2022/03/21 03:21:27;;;;;;;14.55;9.18;;;6.40;51.00;;;;;;5013219;28;20110;-71
2022/03/21 03:23:53;;;;;;;16.20;9.20;;;6.40;50.90;;;;;;5014100;28;20201;-71
2022/03/21 03:26:19;;;;;;;15.27;9.20;;;6.40;51.00;;;;;;5031301;28;20082;-70
2022/03/21 03:28:45;;;;;;;16.30;9.90;;;6.40;51.20;;;;;;5010679;28;20041;-70
2022/03/21 03:31:13;;;;;;;15.05;9.15;;;6.30;51.10;;;;;;5010847;28;20029;-70
2022/03/21 03:33:39;;;;;;;15.40;9.57;;;6.30;51.30;;;;;;5014124;28;20072;-70
2022/03/21 03:36:06;;;;;;;17.52;10.25;;;6.30;51.30;;;;;;5028471;28;20056;-70
2022/03/21 03:38:31;;;;;;;19.42;9.93;;;6.30;51.50;;;;;;5030390;28;20033;-70
2022/03/21 03:40:57;;;;;;;15.50;9.43;;;6.30;51.50;;;;;;5010572;28;20045;-71
2022/03/21 03:43:23;;;;;;;16.85;8.95;;;6.30;51.60;;;;;;5028196;28;20112;-70
2022/03/21 03:45:52;;;;;;;16.08;9.95;;;6.30;51.80;;;;;;5029205;28;20112;-70
2022/03/21 03:48:21;;;;;;;14.93;8.70;;;6.30;51.70;;;;;;5030807;28;20079;-73
2022/03/21 03:50:47;;;;;;;16.88;9.18;;;6.30;51.70;;;;;;5011492;28;20178;-71
2022/03/21 03:53:13;;;;;;;16.27;9.65;;;6.20;51.70;;;;;;5028518;28;20124;-70
2022/03/21 03:55:39;;;;;;;16.02;10.15;;;6.20;51.90;;;;;;5027997;28;20029;-73
2022/03/21 03:58:04;;;;;;;17.90;9.85;;;6.20;51.70;;;;;;5012074;28;20032;-70
2022/03/21 04:00:30;;;;;;;17.83;10.20;;;6.20;51.90;;;;;;5008387;28;20029;-75
2022/03/21 04:05:40;;;;;;;18.23;10.48;;;6.10;52.10;;;;;;5030510;28;20121;-70
2022/03/21 04:08:07;;;;;;;20.27;10.75;;;6.10;52.20;;;;;;5028221;28;20114;-70
2022/03/21 04:10:32;;;;;;;16.65;9.82;;;6.10;52.30;;;;;;5029812;28;20045;-70
2022/03/21 04:12:58;;;;;;;18.67;9.07;;;6.10;52.30;;;;;;5011949;28;20152;-70
2022/03/21 04:15:24;;;;;;;16.65;10.27;;;6.10;52.40;;;;;;5013634;28;20026;-71
2022/03/21 04:17:50;;;;;;;18.42;9.77;;;6.10;52.50;;;;;;5028732;28;20659;-70
2022/03/21 04:20:16;;;;;;;20.58;10.98;;;6.00;52.40;;;;;;5010632;28;20021;-70
2022/03/21 04:22:42;;;;;;;16.60;9.70;;;6.10;52.50;;;;;;5027450;28;20025;-70
2022/03/21 04:25:13;;;;;;;18.35;9.73;;;6.00;52.60;;;;;;5010885;28;20021;-70
2022/03/21 04:27:39;;;;;;;19.25;9.93;;;6.00;52.80;;;;;;5029891;28;20051;-70
2022/03/21 04:30:05;;;;;;;18.33;10.15;;;6.00;52.70;;;;;;5027302;28;20045;-71
2022/03/21 04:32:31;;;;;;;15.43;9.90;;;6.00;52.70;;;;;;5029305;28;20505;-70
2022/03/21 04:34:57;;;;;;;16.48;9.75;;;6.00;52.90;;;;;;5028731;28;20074;-71
2022/03/21 04:37:22;;;;;;;19.38;10.85;;;5.90;53.10;;;;;;5028813;28;20052;-70
2022/03/21 04:39:48;;;;;;;16.42;10.52;;;6.00;53.00;;;;;;5028895;28;20124;-70
2022/03/21 04:42:14;;;;;;;17.55;9.50;;;5.90;52.90;;;;;;5027483;28;20036;-71
2022/03/21 04:44:40;;;;;;;20.50;10.10;;;5.90;53.00;;;;;;5029177;28;20037;-71
2022/03/21 04:47:07;;;;;;;16.45;9.77;;;5.90;53.20;;;;;;5027857;28;20028;-70
2022/03/21 04:49:33;;;;;;;16.45;9.85;;;5.90;53.20;;;;;;5009840;28;20072;-70
2022/03/21 04:51:58;;;;;;;17.42;11.18;;;5.90;53.40;;;;;;5027961;28;20029;-70
2022/03/21 04:54:28;;;;;;;15.93;9.80;;;5.90;53.50;;;;;;5029060;28;20052;-73
2022/03/21 04:56:54;;;;;;;17.10;10.25;;;5.80;53.30;;;;;;5018463;28;20048;-70
2022/03/21 04:59:20;;;;;;;17.95;9.85;;;5.80;53.40;;;;;;4994187;28;20032;-70
2022/03/21 05:01:46;;;;;;;18.52;9.82;;;5.80;53.60;;;;;;5027195;28;20041;-71
2022/03/21 05:04:12;;;;;;;18.90;10.85;;;5.80;53.70;;;;;;5028448;28;20084;-70
2022/03/21 05:06:38;;;;;;;20.50;10.80;;;5.80;53.80;;;;;;5027182;28;20029;-74
2022/03/21 05:09:04;;;;;;;16.45;9.93;;;5.80;53.70;;;;;;5009348;28;20188;-70
2022/03/21 05:11:29;;;;;;;17.67;10.15;;;5.80;53.70;;;;;;5008788;28;20033;-70
2022/03/21 05:13:56;;;;;;;16.95;10.55;;;5.80;53.70;;;;;;5011619;28;20060;-70
2022/03/21 05:16:22;;;;;;;18.90;9.98;;;5.80;53.80;;;;;;5029126;28;20059;-70
2022/03/21 05:18:49;;;;;;;19.13;10.70;;;5.70;53.70;;;;;;5010368;28;20658;-70
2022/03/21 05:21:16;;;;;;;16.90;10.18;;;5.70;54.10;;;;;;5028855;28;20493;-70
2022/03/21 05:31:54;;;;;;;16.00;9.80;;;5.60;54.30;;;;;;5024276;28;20102;-70
2022/03/21 05:37:05;;;;;;;15.63;9.75;;;5.60;54.30;;;;;;5026693;28;20402;-70
2022/03/21 05:39:31;;;;;;;20.65;10.80;;;5.60;54.50;;;;;;5010116;28;20037;-70
2022/03/21 05:41:56;;;;;;;17.95;10.15;;;5.60;54.40;;;;;;5025182;28;20087;-70
2022/03/21 05:44:24;;;;;;;17.23;10.45;;;5.50;54.60;;;;;;5026845;28;20105;-71
2022/03/21 05:46:50;;;;;;;19.85;10.05;;;5.50;54.70;;;;;;4993756;28;20030;-71
2022/03/21 05:49:16;;;;;;;18.40;10.82;;;5.50;54.80;;;;;;5024590;28;20037;-70
2022/03/21 05:51:43;;;;;;;16.13;9.90;;;5.50;54.70;;;;;;5008875;28;20061;-75
2022/03/21 05:54:13;;;;;;;16.38;9.95;;;5.50;54.80;;;;;;4994385;28;20445;-70
2022/03/21 05:56:41;;;;;;;19.38;10.43;;;5.50;54.80;;;;;;5008076;28;20116;-70
2022/03/21 06:01:53;;;;;;;21.00;11.00;;;5.40;54.70;;;;;;5022383;28;20476;-71
2022/03/21 06:04:19;;;;;;;17.77;10.40;;;5.40;54.80;;;;;;5007483;28;20068;-70
2022/03/21 06:06:46;;;;;;;19.05;10.82;;;5.40;55.50;;;;;;5024002;28;20030;-71
2022/03/21 06:09:12;;;;;;;17.45;10.40;;;5.50;55.00;;;;;;5008077;28;20049;-74
2022/03/21 06:11:39;;;;;;;19.70;11.23;;;5.50;54.70;;;;;;5003051;28;20033;-71
2022/03/21 06:14:05;;;;;;;18.60;11.15;;;5.40;54.90;;;;;;5025403;28;20036;-71
2022/03/21 06:16:32;;;;;;;17.40;10.32;;;5.40;55.00;;;;;;5027320;28;20033;-70
2022/03/21 06:19:00;;;;;;;18.67;10.85;;;5.40;54.90;;;;;;5030204;28;20026;-74
2022/03/21 06:21:28;;;;;;;16.95;10.27;;;5.40;55.10;;;;;;5011442;28;20353;-70
2022/03/21 06:23:54;;;;;;;18.42;10.25;;;5.40;55.20;;;;;;5011316;28;20934;-70
2022/03/21 06:26:20;;;;;;;18.48;10.75;;;5.40;55.30;;;;;;5011667;28;20049;-74
2022/03/21 06:28:46;;;;;;;18.83;10.88;;;5.40;55.20;;;;;;5010275;28;20061;-71
2022/03/21 06:31:13;;;;;;;18.73;10.32;;;5.40;55.40;;;;;;5023177;28;20108;-70
2022/03/21 06:33:40;;;;;;;17.65;10.25;;;5.40;55.30;;;;;;5026327;28;20033;-71
2022/03/21 06:36:07;;;;;;;19.45;10.57;;;5.40;55.90;;;;;;5029140;28;20033;-71
2022/03/21 06:38:33;;;;;;;19.70;10.13;;;5.40;55.40;;;;;;5028850;28;20030;-71
2022/03/21 06:40:59;;;;;;;23.85;10.85;;;5.40;55.30;;;;;;4990332;28;20029;-70
2022/03/21 06:43:26;;;;;;;19.45;10.82;;;5.50;55.30;;;;;;5010813;28;20480;-70
2022/03/21 06:45:54;;;;;;;20.50;10.45;;;5.50;55.30;;;;;;5030039;28;20033;-70
2022/03/21 06:48:22;;;;;;;21.30;11.10;;;5.50;55.50;;;;;;5013362;28;20064;-71
2022/03/21 06:50:49;;;;;;;19.02;11.43;;;5.50;55.40;;;;;;5011720;28;20116;-70
2022/03/21 06:53:16;;;;;;;20.85;11.75;;;5.50;55.30;;;;;;5031639;28;20497;-70
2022/03/21 06:55:43;;;;;;;20.73;11.15;;;5.50;55.30;;;;;;5012186;28;20029;-73
2022/03/21 06:58:11;;;;;;;18.33;10.93;;;5.60;55.10;;;;;;5013576;28;20017;-73
2022/03/21 07:00:41;;;;;;;18.23;10.63;;;5.60;55.30;;;;;;5030614;28;20142;-70
2022/03/21 07:03:08;;;;;;;19.88;10.90;;;5.60;55.30;;;;;;5032081;28;20108;-70
2022/03/21 07:05:35;;;;;;;17.85;10.43;;;5.70;56.50;;;;;;5029418;28;20164;-71
2022/03/21 07:08:01;;;;;;;18.90;10.63;;;5.80;55.30;;;;;;5007504;28;20381;-74
2022/03/21 07:10:27;;;;;;;20.52;11.43;;;5.80;54.60;;;;;;5004119;28;20030;-70
2022/03/21 07:12:52;;;;;;;18.08;10.57;;;5.80;54.50;;;;;;5025773;28;20037;-70
2022/03/21 07:15:18;;;;;;;19.38;10.63;;;5.80;54.60;;;;;;5019869;28;20032;-69
2022/03/21 07:17:44;;;;;;;19.00;10.65;;;5.80;55.90;;;;;;5022833;28;20021;-70
2022/03/21 07:20:14;;;;;;;21.85;11.75;;;5.80;54.90;;;;;;5010567;28;20064;-70
2022/03/21 07:22:39;;;;;;;17.20;10.68;;;5.90;54.60;;;;;;5024847;28;20034;-70
2022/03/21 07:25:07;;;;;;;20.98;11.00;;;5.80;54.60;;;;;;5027961;28;20033;-71
2022/03/21 07:27:33;;;;;;;18.95;11.40;;;5.80;54.80;;;;;;5008899;28;20451;-72
2022/03/21 07:29:59;;;;;;;19.75;10.85;;;5.80;54.80;;;;;;5026628;28;20112;-70
2022/03/21 07:32:25;;;;;;;20.60;11.10;;;5.90;55.00;;;;;;5026401;28;20088;-71
2022/03/21 07:34:50;;;;;;;17.73;10.95;;;5.90;55.10;;;;;;5029158;28;20538;-71
2022/03/21 07:37:16;;;;;;;16.65;10.75;;;6.00;55.10;;;;;;5012064;28;20036;-71
2022/03/21 07:39:45;;;;;;;19.00;10.65;;;6.00;55.20;;;;;;5027975;28;20032;-71
2022/03/21 07:42:15;;;;;;;23.40;11.77;;;6.00;54.80;;;;;;5023510;28;20037;-72
2022/03/21 07:47:25;;;;;;;20.83;10.35;;;6.10;55.00;;;;;;5025974;28;20118;-71
2022/03/21 07:49:52;;;;;;;20.05;10.80;;;6.10;55.10;;;;;;5009158;28;20455;-70
2022/03/21 07:52:19;;;;;;;21.23;11.65;;;6.10;55.10;;;;;;5008451;28;20029;-71
2022/03/21 07:54:53;;;;;;;16.40;10.45;;;6.20;55.20;;;;;;5027955;28;20060;-71
2022/03/21 07:57:21;;;;;;;16.90;10.48;;;6.20;55.00;;;;;;5023168;28;20060;-71
2022/03/21 07:59:47;;;;;;;22.45;11.35;;;6.20;55.20;;;;;;5006279;28;20026;-71
2022/03/21 08:02:13;;;;;;;16.90;10.63;;;6.30;55.00;;;;;;5024590;28;20041;-72
2022/03/21 08:04:39;;;;;;;20.60;11.45;;;6.40;55.30;;;;;;5027330;28;20056;-72
2022/03/21 08:07:04;;;;;;;18.63;11.38;;;6.40;55.30;;;;;;5029350;28;20604;-70
2022/03/21 08:09:31;;;;;;;19.63;12.10;;;6.50;55.10;;;;;;5027528;28;20049;-70
2022/03/21 08:11:57;;;;;;;17.73;11.35;;;6.50;55.30;;;;;;5008155;28;20519;-70
2022/03/21 08:14:24;;;;;;;18.65;10.48;;;6.60;55.10;;;;;;5022554;28;20105;-70
2022/03/21 08:16:50;;;;;;;21.10;11.45;;;6.60;54.90;;;;;;5026695;28;20022;-71
2022/03/21 08:19:16;;;;;;;19.52;11.07;;;6.70;54.90;;;;;;5028407;28;20022;-71
2022/03/21 08:21:42;;;;;;;18.27;11.27;;;6.70;55.10;;;;;;5010148;28;20061;-71
2022/03/21 08:24:08;;;;;;;21.42;11.30;;;6.80;54.90;;;;;;5024064;28;20098;-75
2022/03/21 08:26:35;;;;;;;19.83;11.90;;;6.80;54.80;;;;;;4990797;28;20488;-71
2022/03/21 08:29:01;;;;;;;22.98;12.02;;;6.80;54.90;;;;;;5023910;28;20029;-71
2022/03/21 08:31:27;;;;;;;20.60;11.10;;;6.80;54.80;;;;;;5007222;28;20409;-71
2022/03/21 08:33:52;;;;;;;21.23;12.05;;;6.90;54.80;;;;;;5027536;28;20109;-74
2022/03/21 08:36:18;;;;;;;18.27;10.95;;;6.90;54.70;;;;;;5007709;28;20497;-72
2022/03/21 08:38:44;;;;;;;21.27;12.23;;;7.00;54.90;;;;;;5013689;28;20068;-71
2022/03/21 08:41:11;;;;;;;20.92;11.80;;;7.00;54.90;;;;;;5030625;28;20223;-71
2022/03/21 08:43:37;;;;;;;20.92;11.93;;;7.10;54.60;;;;;;5028026;28;20120;-74
2022/03/21 08:46:02;;;;;;;22.52;12.68;;;7.10;54.80;;;;;;5001250;28;20161;-71
2022/03/21 08:51:13;;;;;;;19.70;11.70;;;7.30;54.10;;;;;;5023902;28;20036;-72
2022/03/21 08:53:38;;;;;;;22.42;11.52;;;7.30;54.00;;;;;;5019906;28;20040;-72
2022/03/21 08:56:04;;;;;;;19.75;11.68;;;7.40;53.60;;;;;;5024843;28;20021;-72
2022/03/21 08:58:30;;;;;;;20.80;12.68;;;7.50;53.70;;;;;;5025030;28;20425;-72
2022/03/21 09:00:56;;;;;;;22.05;12.43;;;7.50;53.80;;;;;;5021088;28;20030;-72
2022/03/21 09:03:22;;;;;;;22.13;12.75;;;7.60;53.40;;;;;;5007729;28;20520;-72
2022/03/21 09:05:47;;;;;;;17.38;11.13;;;7.70;52.60;;;;;;5023418;28;20100;-72
2022/03/21 09:08:13;;;;;;;17.75;11.27;;;7.80;51.80;;;;;;5010645;28;20044;-72
2022/03/21 09:10:39;;;;;;;20.08;11.20;;;7.80;51.60;;;;;;5009350;28;20381;-72
2022/03/21 09:13:05;;;;;;;20.52;11.60;;;7.90;51.70;;;;;;5011125;28;20534;-72
2022/03/21 09:15:32;;;;;;;19.55;11.20;;;7.90;51.40;;;;;;5006374;28;20021;-72
2022/03/21 09:17:58;;;;;;;20.63;11.20;;;8.00;51.40;;;;;;5027266;28;20021;-72
2022/03/21 09:20:23;;;;;;;18.25;11.18;;;8.00;51.20;;;;;;5025837;28;20104;-72
2022/03/21 09:22:49;;;;;;;25.05;11.30;;;8.10;51.20;;;;;;5026656;28;20033;-72
2022/03/21 09:25:17;;;;;;;20.08;11.77;;;8.10;51.60;;;;;;5027909;28;20057;-72
2022/03/21 09:27:42;;;;;;;19.92;11.20;;;8.20;51.50;;;;;;5008332;28;20030;-74
2022/03/21 09:30:10;;;;;;;23.08;12.70;;;8.30;51.30;;;;;;5007855;28;20033;-72
2022/03/21 09:32:36;;;;;;;23.65;13.07;;;8.40;51.90;;;;;;5026107;28;20496;-72
2022/03/21 09:35:02;;;;;;;19.30;11.55;;;8.50;50.60;;;;;;5027355;28;20034;-72
2022/03/21 09:37:28;;;;;;;18.10;11.73;;;8.50;50.60;;;;;;5022862;28;20083;-73
2022/03/21 09:39:54;;;;;;;19.58;11.38;;;8.60;50.50;;;;;;5024653;28;20037;-72
2022/03/21 09:42:20;;;;;;;21.23;11.55;;;8.60;50.50;;;;;;5026782;28;20112;-72
2022/03/21 09:44:52;;;;;;;25.23;13.38;;;8.70;50.10;;;;;;5026299;28;20382;-72
2022/03/21 09:50:10;;;;;;;17.95;12.10;;;8.80;50.00;;;;;;5024450;28;20041;-72
2022/03/21 09:52:36;;;;;;;19.40;11.82;;;8.90;49.80;;;;;;5008735;28;20029;-72
2022/03/21 09:55:04;;;;;;;19.70;12.10;;;8.90;49.20;;;;;;5024476;28;20489;-72
2022/03/21 09:57:31;;;;;;;18.90;11.82;;;9.00;49.80;;;;;;5024964;28;20117;-75
2022/03/21 09:59:58;;;;;;;19.85;12.38;;;9.10;49.30;;;;;;5024456;28;20584;-72
2022/03/21 10:02:24;;;;;;;23.05;11.77;;;9.20;49.10;;;;;;5023927;28;20120;-72
2022/03/21 10:04:50;;;;;;;18.42;11.30;;;9.30;49.20;;;;;;5027510;28;20033;-73
2022/03/21 10:07:26;;;;;;;20.58;11.65;;;9.30;49.70;;;;;;5025077;28;20083;-72
2022/03/21 10:10:04;;;;;;;19.70;12.43;;;9.50;49.40;;;;;;5026878;28;20034;-72
2022/03/21 10:12:30;;;;;;;17.85;12.00;;;9.50;49.40;;;;;;5023711;28;20604;-72
2022/03/21 10:14:57;;;;;;;16.67;11.70;;;9.60;49.30;;;;;;5027651;28;20497;-72
2022/03/21 10:17:22;;;;;;;17.42;11.10;;;9.70;48.80;;;;;;5024247;28;20040;-72
2022/03/21 10:19:52;;;;;;;21.70;12.45;;;9.80;49.20;;;;;;5001493;28;20097;-72
2022/03/21 10:22:43;;;;;;;19.17;12.43;;;9.80;48.40;;;;;;5025492;28;20488;-72
2022/03/21 10:25:15;;;;;;;17.55;12.10;;;9.90;48.60;;;;;;5009227;28;20033;-72
2022/03/21 10:27:43;;;;;;;21.73;12.35;;;9.90;48.30;;;;;;5024120;28;20044;-73
2022/03/21 10:30:21;;;;;;;18.73;12.13;;;9.90;48.70;;;;;;5025578;28;20040;-72
2022/03/21 10:32:58;;;;;;;21.50;12.02;;;10.00;48.00;;;;;;5007676;28;20033;-73
2022/03/21 10:35:29;;;;;;;16.98;11.50;;;10.20;47.70;;;;;;5024283;28;20029;-72
2022/03/21 10:38:01;;;;;;;19.25;12.85;;;10.20;47.40;;;;;;5027130;28;20025;-73
2022/03/21 10:40:30;;;;;;;20.38;12.80;;;10.20;47.40;;;;;;5024994;28;20044;-72
2022/03/21 10:42:59;;;;;;;23.13;12.35;;;10.30;48.00;;;;;;5026042;28;20036;-72
2022/03/21 10:45:42;;;;;;;17.73;12.55;;;10.40;47.60;;;;;;5020099;28;20053;-72
2022/03/21 10:48:10;;;;;;;18.30;12.25;;;10.40;47.50;;;;;;5024929;28;20135;-73
2022/03/21 10:50:42;;;;;;;20.45;10.95;;;10.50;48.10;;;;;;5005692;28;20027;-71
2022/03/21 10:53:19;;;;;;;19.80;12.02;;;10.70;50.00;;;;;;5001974;28;20026;-71
2022/03/21 10:55:47;;;;;;;20.05;13.40;;;10.80;49.20;;;;;;5023602;28;20025;-72
2022/03/21 10:58:17;;;;;;;19.45;12.82;;;10.90;47.30;;;;;;5022390;28;20026;-70
2022/03/21 11:00:43;;;;;;;18.48;12.40;;;10.90;46.40;;;;;;5025666;28;21010;-71
2022/03/21 11:03:15;;;;;;;18.88;11.60;;;11.00;46.70;;;;;;5028888;28;20040;-72
2022/03/21 11:05:50;;;;;;;22.63;12.20;;;11.20;46.70;;;;;;5011874;28;20087;-73
2022/03/21 11:08:18;;;;;;;17.80;11.65;;;11.30;46.90;;;;;;5029224;28;20401;-71
2022/03/21 11:10:47;;;;;;;18.73;12.63;;;11.50;46.60;;;;;;5023635;28;20109;-71
2022/03/21 11:13:14;;;;;;;20.50;12.50;;;11.90;47.70;;;;;;5030448;28;20033;-73
2022/03/21 11:15:41;;;;;;;17.13;11.98;;;12.70;46.40;;;;;;5029785;28;20134;-70
2022/03/21 11:18:08;;;;;;;17.83;11.88;;;14.10;44.20;;;;;;5026534;28;20033;-70
2022/03/21 11:20:34;;;;;;;17.40;12.25;;;15.70;40.50;;;;;;5028408;28;20087;-70
2022/03/21 11:23:01;;;;;;;15.40;11.70;;;17.40;37.50;;;;;;5027653;28;20022;-69
2022/03/21 11:25:37;;;;;;;14.65;11.65;;;18.60;35.70;;;;;;4993898;28;20080;-71
2022/03/21 11:28:28;;;;;;;18.55;12.18;;;19.50;34.40;;;;;;5015842;28;20025;-69
2022/03/21 11:30:57;;;;;;;14.60;12.05;;;20.40;32.00;;;;;;5026512;28;20033;-71
2022/03/21 11:33:40;;;;;;;13.43;10.90;;;20.70;31.80;;;;;;5030117;28;20034;-71
2022/03/21 11:36:08;;;;;;;16.05;11.82;;;20.80;31.20;;;;;;5030674;28;20070;-73
2022/03/21 11:38:41;;;;;;;16.00;11.65;;;20.70;31.30;;;;;;5010851;28;20021;-72
2022/03/21 11:41:14;;;;;;;14.95;12.05;;;20.60;30.70;;;;;;5012646;28;20110;-70
2022/03/21 11:43:41;;;;;;;14.32;11.23;;;20.60;30.00;;;;;;5031497;28;20465;-71
2022/03/21 11:46:30;;;;;;;16.05;12.48;;;20.60;31.30;;;;;;5012230;28;20484;-73
2022/03/21 11:49:16;;;;;;;14.73;10.77;;;20.30;30.60;;;;;;5030602;28;20038;-72
2022/03/21 11:51:43;;;;;;;18.10;12.63;;;20.10;31.50;;;;;;5025817;28;20025;-74
2022/03/21 11:54:27;;;;;;;16.80;13.18;;;19.70;32.50;;;;;;5029970;28;20645;-71
2022/03/21 11:56:54;;;;;;;17.38;12.02;;;19.20;32.40;;;;;;5010429;28;20030;-72
2022/03/21 11:59:32;;;;;;;17.58;12.60;;;18.60;33.60;;;;;;5030680;28;20018;-72
2022/03/21 12:02:03;;;;;;;18.02;13.43;;;17.80;33.70;;;;;;5008905;28;20116;-72
2022/03/21 12:04:29;;;;;;;;;;;17.00;35.30;;;;;;5030279;28;20033;-72
2022/03/21 12:07:11;;;;;;;19.02;11.75;;;16.60;36.50;;;;;;5012481;28;19909;-72
2022/03/21 12:09:50;;;;;;;18.02;12.02;;;16.30;37.20;;;;;;5028336;28;20033;-72
2022/03/21 12:12:17;;;;;;;19.67;12.75;;;16.00;37.50;;;;;;5008005;28;20029;-73
2022/03/21 12:14:48;;;;;;;15.82;11.30;;;16.00;38.50;;;;;;5007188;28;20025;-73
2022/03/21 12:17:13;;;;;;;19.15;13.02;;;16.00;38.90;;;;;;5026430;28;20018;-71
2022/03/21 12:19:48;;;;;;;18.92;13.88;;;16.20;37.40;;;;;;5023789;28;20048;-72
2022/03/21 12:22:43;;;;;;;15.48;12.10;;;16.20;36.10;;;;;;5005027;28;20136;-72
2022/03/21 12:25:11;;;;;;;20.42;12.85;;;16.30;36.60;;;;;;4979197;28;20418;-72
2022/03/21 12:27:36;;;;;;;18.60;12.52;;;16.40;36.80;;;;;;5027519;28;20136;-71
2022/03/21 12:30:26;;;;;;;16.27;12.55;;;16.50;35.80;;;;;;5009676;28;20120;-71
2022/03/21 12:33:10;;;;;;;17.85;12.73;;;16.80;36.40;;;;;;5024625;28;20055;-72
2022/03/21 12:35:39;;;;;;;18.90;12.73;;;16.90;35.40;;;;;;5028199;28;20501;-72
2022/03/21 12:38:06;;;;;;;18.50;12.77;;;16.60;35.70;;;;;;5026379;28;20033;-72
2022/03/21 12:41:00;;;;;;;16.95;12.57;;;16.10;36.30;;;;;;5029270;28;20031;-72
2022/03/21 12:43:46;;;;;;;17.27;12.32;;;15.80;37.10;;;;;;5021688;28;20481;-71
2022/03/21 12:46:14;;;;;;;16.80;12.45;;;15.60;37.60;;;;;;5012740;28;20030;-72
2022/03/21 12:48:54;;;;;;;19.50;13.13;;;15.20;37.80;;;;;;5009055;28;20109;-71
2022/03/21 12:51:29;;;;;;;18.40;13.52;;;15.00;37.90;;;;;;5010194;28;20079;-72
2022/03/21 12:53:58;;;;;;;17.65;12.60;;;14.80;38.50;;;;;;5028637;28;20128;-72
2022/03/21 12:56:25;;;;;;;20.60;13.18;;;14.60;38.80;;;;;;5008817;28;20025;-72
2022/03/21 12:58:57;;;;;;;19.05;12.20;;;14.50;39.30;;;;;;5029244;28;20481;-72
2022/03/21 13:01:23;;;;;;;18.65;13.20;;;14.30;39.00;;;;;;5028814;28;20025;-71
2022/03/21 13:03:57;;;;;;;18.55;13.38;;;14.10;39.40;;;;;;5027433;28;20802;-72
2022/03/21 13:11:55;;;;;;;27.15;13.68;;;14.00;40.80;;;;;;5039544;28;20026;-74
2022/03/21 13:14:21;;;;;;;16.95;13.10;;;13.90;40.50;;;;;;5024775;28;20295;-71